sensor_id;sensor_type;location;lat;lon;timestamp;P1;durP1;ratioP1;P2;durP2;ratioP2
28431;SDS011;15664;51.302;7.744;2022-07-06T00:01:37;6.33;;;2.83;;
28431;SDS011;15664;51.302;7.744;2022-07-06T00:04:03;6.20;;;2.50;;
28431;SDS011;15664;51.302;7.744;2022-07-06T00:06:29;7.50;;;2.70;;
28431;SDS011;15664;51.302;7.744;2022-07-06T00:08:54;7.85;;;2.70;;
28431;SDS011;15664;51.302;7.744;2022-07-06T00:11:20;6.23;;;2.50;;
28431;SDS011;15664;51.302;7.744;2022-07-06T00:13:45;9.37;;;2.80;;
28431;SDS011;15664;51.302;7.744;2022-07-06T00:16:11;7.95;;;2.90;;
28431;SDS011;15664;51.302;7.744;2022-07-06T00:18:36;6.80;;;2.70;;
28431;SDS011;15664;51.302;7.744;2022-07-06T00:21:02;8.40;;;2.67;;
28431;SDS011;15664;51.302;7.744;2022-07-06T00:23:27;5.80;;;2.40;;
28431;SDS011;15664;51.302;7.744;2022-07-06T00:25:53;6.88;;;2.50;;
28431;SDS011;15664;51.302;7.744;2022-07-06T00:28:18;5.78;;;2.47;;
28431;SDS011;15664;51.302;7.744;2022-07-06T00:30:43;6.93;;;2.50;;
28431;SDS011;15664;51.302;7.744;2022-07-06T00:33:09;5.77;;;2.27;;
28431;SDS011;15664;51.302;7.744;2022-07-06T00:35:34;5.83;;;2.50;;
28431;SDS011;15664;51.302;7.744;2022-07-06T00:37:59;5.60;;;2.40;;
28431;SDS011;15664;51.302;7.744;2022-07-06T00:40:25;5.97;;;2.70;;
28431;SDS011;15664;51.302;7.744;2022-07-06T00:42:50;6.80;;;2.50;;
28431;SDS011;15664;51.302;7.744;2022-07-06T00:45:17;5.40;;;2.30;;
28431;SDS011;15664;51.302;7.744;2022-07-06T00:47:43;6.80;;;2.53;;
28431;SDS011;15664;51.302;7.744;2022-07-06T00:50:09;6.50;;;2.57;;
28431;SDS011;15664;51.302;7.744;2022-07-06T00:52:39;8.38;;;2.20;;
28431;SDS011;15664;51.302;7.744;2022-07-06T00:55:06;6.95;;;2.50;;
28431;SDS011;15664;51.302;7.744;2022-07-06T00:57:31;5.60;;;2.50;;
28431;SDS011;15664;51.302;7.744;2022-07-06T00:59:57;6.03;;;2.53;;
28431;SDS011;15664;51.302;7.744;2022-07-06T01:02:22;5.60;;;2.43;;
28431;SDS011;15664;51.302;7.744;2022-07-06T01:04:48;7.57;;;2.47;;
28431;SDS011;15664;51.302;7.744;2022-07-06T01:07:13;5.93;;;2.40;;
28431;SDS011;15664;51.302;7.744;2022-07-06T01:09:39;5.87;;;2.40;;
28431;SDS011;15664;51.302;7.744;2022-07-06T01:12:04;5.97;;;2.17;;
28431;SDS011;15664;51.302;7.744;2022-07-06T01:14:31;5.03;;;2.28;;
28431;SDS011;15664;51.302;7.744;2022-07-06T01:16:57;5.97;;;2.38;;
28431;SDS011;15664;51.302;7.744;2022-07-06T01:19:23;6.70;;;2.57;;
28431;SDS011;15664;51.302;7.744;2022-07-06T01:21:48;5.72;;;2.50;;
28431;SDS011;15664;51.302;7.744;2022-07-06T01:24:13;5.78;;;2.72;;
28431;SDS011;15664;51.302;7.744;2022-07-06T01:26:39;9.17;;;2.67;;
28431;SDS011;15664;51.302;7.744;2022-07-06T01:29:05;9.30;;;2.70;;
28431;SDS011;15664;51.302;7.744;2022-07-06T01:31:30;8.07;;;2.73;;
28431;SDS011;15664;51.302;7.744;2022-07-06T01:33:57;7.35;;;2.80;;
28431;SDS011;15664;51.302;7.744;2022-07-06T01:36:23;6.90;;;2.60;;
28431;SDS011;15664;51.302;7.744;2022-07-06T01:38:53;6.18;;;2.63;;
28431;SDS011;15664;51.302;7.744;2022-07-06T01:41:23;5.30;;;2.35;;
28431;SDS011;15664;51.302;7.744;2022-07-06T01:43:48;8.83;;;2.50;;
28431;SDS011;15664;51.302;7.744;2022-07-06T01:46:14;10.07;;;2.63;;
28431;SDS011;15664;51.302;7.744;2022-07-06T01:48:40;5.97;;;2.80;;
28431;SDS011;15664;51.302;7.744;2022-07-06T01:51:06;6.57;;;2.65;;
28431;SDS011;15664;51.302;7.744;2022-07-06T01:53:32;9.67;;;2.80;;
28431;SDS011;15664;51.302;7.744;2022-07-06T01:55:58;5.13;;;2.05;;
28431;SDS011;15664;51.302;7.744;2022-07-06T01:58:25;7.57;;;2.83;;
28431;SDS011;15664;51.302;7.744;2022-07-06T02:00:50;5.33;;;2.30;;
28431;SDS011;15664;51.302;7.744;2022-07-06T02:03:16;6.07;;;2.17;;
28431;SDS011;15664;51.302;7.744;2022-07-06T02:05:42;6.93;;;2.40;;
28431;SDS011;15664;51.302;7.744;2022-07-06T02:08:07;5.30;;;2.40;;
28431;SDS011;15664;51.302;7.744;2022-07-06T02:10:32;8.23;;;2.37;;
28431;SDS011;15664;51.302;7.744;2022-07-06T02:12:58;5.45;;;2.33;;
28431;SDS011;15664;51.302;7.744;2022-07-06T02:15:23;6.97;;;2.55;;
28431;SDS011;15664;51.302;7.744;2022-07-06T02:17:48;6.50;;;2.50;;
28431;SDS011;15664;51.302;7.744;2022-07-06T02:20:13;6.30;;;2.30;;
28431;SDS011;15664;51.302;7.744;2022-07-06T02:22:39;6.50;;;2.30;;
28431;SDS011;15664;51.302;7.744;2022-07-06T02:25:05;4.85;;;2.20;;
28431;SDS011;15664;51.302;7.744;2022-07-06T02:27:31;9.13;;;2.67;;
28431;SDS011;15664;51.302;7.744;2022-07-06T02:29:58;5.68;;;2.42;;
28431;SDS011;15664;51.302;7.744;2022-07-06T02:32:23;6.22;;;2.20;;
28431;SDS011;15664;51.302;7.744;2022-07-06T02:34:49;7.77;;;2.20;;
28431;SDS011;15664;51.302;7.744;2022-07-06T02:37:15;6.60;;;2.13;;
28431;SDS011;15664;51.302;7.744;2022-07-06T02:39:40;7.30;;;2.33;;
28431;SDS011;15664;51.302;7.744;2022-07-06T02:42:06;7.83;;;2.33;;
28431;SDS011;15664;51.302;7.744;2022-07-06T02:44:32;7.13;;;2.40;;
28431;SDS011;15664;51.302;7.744;2022-07-06T02:46:57;6.75;;;2.40;;
28431;SDS011;15664;51.302;7.744;2022-07-06T02:49:22;8.48;;;2.72;;
28431;SDS011;15664;51.302;7.744;2022-07-06T02:51:48;8.33;;;2.57;;
28431;SDS011;15664;51.302;7.744;2022-07-06T02:54:14;5.68;;;2.30;;
28431;SDS011;15664;51.302;7.744;2022-07-06T02:56:39;6.28;;;2.60;;
28431;SDS011;15664;51.302;7.744;2022-07-06T02:59:05;6.40;;;2.20;;
28431;SDS011;15664;51.302;7.744;2022-07-06T03:01:31;8.20;;;2.53;;
28431;SDS011;15664;51.302;7.744;2022-07-06T03:03:56;8.45;;;2.30;;
28431;SDS011;15664;51.302;7.744;2022-07-06T03:06:21;7.78;;;2.40;;
28431;SDS011;15664;51.302;7.744;2022-07-06T03:08:47;5.40;;;2.50;;
28431;SDS011;15664;51.302;7.744;2022-07-06T03:11:12;7.80;;;2.37;;
28431;SDS011;15664;51.302;7.744;2022-07-06T03:13:38;5.43;;;2.53;;
28431;SDS011;15664;51.302;7.744;2022-07-06T03:16:04;5.67;;;2.40;;
28431;SDS011;15664;51.302;7.744;2022-07-06T03:18:30;7.55;;;2.60;;
28431;SDS011;15664;51.302;7.744;2022-07-06T03:20:55;5.27;;;2.37;;
28431;SDS011;15664;51.302;7.744;2022-07-06T03:23:21;7.68;;;2.58;;
28431;SDS011;15664;51.302;7.744;2022-07-06T03:25:46;7.03;;;2.43;;
28431;SDS011;15664;51.302;7.744;2022-07-06T03:28:12;7.40;;;2.47;;
28431;SDS011;15664;51.302;7.744;2022-07-06T03:30:37;10.30;;;3.57;;
28431;SDS011;15664;51.302;7.744;2022-07-06T03:33:03;5.20;;;2.50;;
28431;SDS011;15664;51.302;7.744;2022-07-06T03:35:29;8.30;;;2.85;;
28431;SDS011;15664;51.302;7.744;2022-07-06T03:37:55;6.45;;;2.90;;
28431;SDS011;15664;51.302;7.744;2022-07-06T03:40:23;6.85;;;2.40;;
28431;SDS011;15664;51.302;7.744;2022-07-06T03:42:50;7.32;;;2.20;;
28431;SDS011;15664;51.302;7.744;2022-07-06T03:45:15;7.13;;;2.53;;
28431;SDS011;15664;51.302;7.744;2022-07-06T03:47:40;7.17;;;2.53;;
28431;SDS011;15664;51.302;7.744;2022-07-06T03:50:07;7.57;;;2.20;;
28431;SDS011;15664;51.302;7.744;2022-07-06T03:52:33;5.93;;;2.55;;
28431;SDS011;15664;51.302;7.744;2022-07-06T03:55:00;6.25;;;2.28;;
28431;SDS011;15664;51.302;7.744;2022-07-06T03:57:27;4.97;;;2.00;;
28431;SDS011;15664;51.302;7.744;2022-07-06T03:59:54;8.93;;;2.50;;
28431;SDS011;15664;51.302;7.744;2022-07-06T04:02:21;5.20;;;2.17;;
28431;SDS011;15664;51.302;7.744;2022-07-06T04:04:49;6.78;;;2.80;;
28431;SDS011;15664;51.302;7.744;2022-07-06T04:07:14;7.73;;;2.40;;
28431;SDS011;15664;51.302;7.744;2022-07-06T04:09:40;5.73;;;2.17;;
28431;SDS011;15664;51.302;7.744;2022-07-06T04:12:06;10.05;;;2.55;;
28431;SDS011;15664;51.302;7.744;2022-07-06T04:14:32;6.20;;;2.65;;
28431;SDS011;15664;51.302;7.744;2022-07-06T04:16:57;9.60;;;2.93;;
28431;SDS011;15664;51.302;7.744;2022-07-06T04:19:23;5.40;;;2.30;;
28431;SDS011;15664;51.302;7.744;2022-07-06T04:21:48;5.53;;;2.15;;
28431;SDS011;15664;51.302;7.744;2022-07-06T04:24:14;8.87;;;2.70;;
28431;SDS011;15664;51.302;7.744;2022-07-06T04:26:39;9.47;;;2.77;;
28431;SDS011;15664;51.302;7.744;2022-07-06T04:29:05;7.03;;;2.50;;
28431;SDS011;15664;51.302;7.744;2022-07-06T04:31:31;7.60;;;2.40;;
28431;SDS011;15664;51.302;7.744;2022-07-06T04:33:56;5.70;;;2.40;;
28431;SDS011;15664;51.302;7.744;2022-07-06T04:36:23;6.03;;;2.53;;
28431;SDS011;15664;51.302;7.744;2022-07-06T04:38:49;6.30;;;2.50;;
28431;SDS011;15664;51.302;7.744;2022-07-06T04:41:15;7.83;;;2.60;;
28431;SDS011;15664;51.302;7.744;2022-07-06T04:43:40;6.93;;;2.47;;
28431;SDS011;15664;51.302;7.744;2022-07-06T04:46:08;7.30;;;2.57;;
28431;SDS011;15664;51.302;7.744;2022-07-06T04:48:36;6.40;;;2.13;;
28431;SDS011;15664;51.302;7.744;2022-07-06T04:51:04;5.72;;;2.33;;
28431;SDS011;15664;51.302;7.744;2022-07-06T04:53:30;6.83;;;2.70;;
28431;SDS011;15664;51.302;7.744;2022-07-06T04:55:56;7.68;;;2.97;;
28431;SDS011;15664;51.302;7.744;2022-07-06T04:58:22;5.70;;;2.30;;
28431;SDS011;15664;51.302;7.744;2022-07-06T05:00:48;10.97;;;2.83;;
28431;SDS011;15664;51.302;7.744;2022-07-06T05:03:13;7.93;;;2.97;;
28431;SDS011;15664;51.302;7.744;2022-07-06T05:05:38;7.87;;;2.60;;
28431;SDS011;15664;51.302;7.744;2022-07-06T05:08:04;8.32;;;2.90;;
28431;SDS011;15664;51.302;7.744;2022-07-06T05:10:29;7.10;;;2.80;;
28431;SDS011;15664;51.302;7.744;2022-07-06T05:12:56;7.72;;;2.50;;
28431;SDS011;15664;51.302;7.744;2022-07-06T05:15:23;8.40;;;2.33;;
28431;SDS011;15664;51.302;7.744;2022-07-06T05:17:49;5.97;;;2.50;;
28431;SDS011;15664;51.302;7.744;2022-07-06T05:20:15;11.27;;;2.85;;
28431;SDS011;15664;51.302;7.744;2022-07-06T05:22:43;7.10;;;2.53;;
28431;SDS011;15664;51.302;7.744;2022-07-06T05:25:08;7.03;;;2.08;;
28431;SDS011;15664;51.302;7.744;2022-07-06T05:27:34;4.82;;;2.20;;
28431;SDS011;15664;51.302;7.744;2022-07-06T05:29:59;8.70;;;2.80;;
28431;SDS011;15664;51.302;7.744;2022-07-06T05:32:25;6.87;;;2.37;;
28431;SDS011;15664;51.302;7.744;2022-07-06T05:34:50;6.90;;;1.98;;
28431;SDS011;15664;51.302;7.744;2022-07-06T05:37:17;7.32;;;2.22;;
28431;SDS011;15664;51.302;7.744;2022-07-06T05:39:43;6.18;;;2.08;;
28431;SDS011;15664;51.302;7.744;2022-07-06T05:42:11;6.93;;;2.22;;
28431;SDS011;15664;51.302;7.744;2022-07-06T05:44:37;7.23;;;2.57;;
28431;SDS011;15664;51.302;7.744;2022-07-06T05:47:03;5.43;;;2.10;;
28431;SDS011;15664;51.302;7.744;2022-07-06T05:49:47;9.55;;;2.30;;
28431;SDS011;15664;51.302;7.744;2022-07-06T05:52:31;8.68;;;2.28;;
28431;SDS011;15664;51.302;7.744;2022-07-06T05:54:56;9.17;;;2.80;;
28431;SDS011;15664;51.302;7.744;2022-07-06T05:57:22;6.70;;;2.37;;
28431;SDS011;15664;51.302;7.744;2022-07-06T05:59:47;8.20;;;2.40;;
28431;SDS011;15664;51.302;7.744;2022-07-06T06:02:13;5.90;;;2.10;;
28431;SDS011;15664;51.302;7.744;2022-07-06T06:04:38;7.10;;;2.10;;
28431;SDS011;15664;51.302;7.744;2022-07-06T06:07:04;7.57;;;2.30;;
28431;SDS011;15664;51.302;7.744;2022-07-06T06:09:29;6.90;;;1.63;;
28431;SDS011;15664;51.302;7.744;2022-07-06T06:11:55;7.33;;;2.10;;
28431;SDS011;15664;51.302;7.744;2022-07-06T06:14:20;6.63;;;2.03;;
28431;SDS011;15664;51.302;7.744;2022-07-06T06:16:45;5.10;;;1.98;;
28431;SDS011;15664;51.302;7.744;2022-07-06T06:19:10;9.70;;;2.10;;
28431;SDS011;15664;51.302;7.744;2022-07-06T06:21:36;4.67;;;1.73;;
28431;SDS011;15664;51.302;7.744;2022-07-06T06:24:01;4.53;;;1.97;;
28431;SDS011;15664;51.302;7.744;2022-07-06T06:26:26;8.67;;;1.77;;
28431;SDS011;15664;51.302;7.744;2022-07-06T06:28:52;6.80;;;2.17;;
28431;SDS011;15664;51.302;7.744;2022-07-06T06:31:17;7.67;;;2.27;;
28431;SDS011;15664;51.302;7.744;2022-07-06T06:33:42;4.37;;;1.60;;
28431;SDS011;15664;51.302;7.744;2022-07-06T06:36:07;8.07;;;2.10;;
28431;SDS011;15664;51.302;7.744;2022-07-06T06:38:33;5.97;;;2.20;;
28431;SDS011;15664;51.302;7.744;2022-07-06T06:40:59;6.53;;;2.37;;
28431;SDS011;15664;51.302;7.744;2022-07-06T06:43:26;5.97;;;2.58;;
28431;SDS011;15664;51.302;7.744;2022-07-06T06:46:07;9.48;;;2.35;;
28431;SDS011;15664;51.302;7.744;2022-07-06T06:48:32;5.90;;;2.30;;
28431;SDS011;15664;51.302;7.744;2022-07-06T06:50:57;7.17;;;2.57;;
28431;SDS011;15664;51.302;7.744;2022-07-06T06:53:23;7.63;;;2.90;;
28431;SDS011;15664;51.302;7.744;2022-07-06T06:55:49;6.57;;;2.67;;
28431;SDS011;15664;51.302;7.744;2022-07-06T06:58:14;6.72;;;3.45;;
28431;SDS011;15664;51.302;7.744;2022-07-06T07:00:39;9.40;;;3.23;;
28431;SDS011;15664;51.302;7.744;2022-07-06T07:03:05;9.17;;;3.30;;
28431;SDS011;15664;51.302;7.744;2022-07-06T07:05:30;5.32;;;2.97;;
28431;SDS011;15664;51.302;7.744;2022-07-06T07:07:56;14.77;;;4.13;;
28431;SDS011;15664;51.302;7.744;2022-07-06T07:10:24;7.35;;;3.08;;
28431;SDS011;15664;51.302;7.744;2022-07-06T07:12:51;6.47;;;3.22;;
28431;SDS011;15664;51.302;7.744;2022-07-06T07:15:16;7.90;;;3.40;;
28431;SDS011;15664;51.302;7.744;2022-07-06T07:17:41;6.22;;;3.25;;
28431;SDS011;15664;51.302;7.744;2022-07-06T07:20:07;7.68;;;3.28;;
28431;SDS011;15664;51.302;7.744;2022-07-06T07:22:33;6.57;;;2.97;;
28431;SDS011;15664;51.302;7.744;2022-07-06T07:24:58;9.63;;;3.00;;
28431;SDS011;15664;51.302;7.744;2022-07-06T07:27:24;8.67;;;2.93;;
28431;SDS011;15664;51.302;7.744;2022-07-06T07:29:50;6.80;;;3.00;;
28431;SDS011;15664;51.302;7.744;2022-07-06T07:32:15;7.37;;;3.33;;
28431;SDS011;15664;51.302;7.744;2022-07-06T07:34:41;7.90;;;3.30;;
28431;SDS011;15664;51.302;7.744;2022-07-06T07:37:06;5.90;;;2.90;;
28431;SDS011;15664;51.302;7.744;2022-07-06T07:39:31;7.53;;;3.20;;
28431;SDS011;15664;51.302;7.744;2022-07-06T07:41:57;7.00;;;3.00;;
28431;SDS011;15664;51.302;7.744;2022-07-06T07:44:22;7.20;;;3.23;;
28431;SDS011;15664;51.302;7.744;2022-07-06T07:46:47;5.40;;;2.70;;
28431;SDS011;15664;51.302;7.744;2022-07-06T07:49:12;7.07;;;3.43;;
28431;SDS011;15664;51.302;7.744;2022-07-06T07:51:38;6.50;;;3.08;;
28431;SDS011;15664;51.302;7.744;2022-07-06T07:54:04;7.30;;;2.80;;
28431;SDS011;15664;51.302;7.744;2022-07-06T07:56:29;5.28;;;2.65;;
28431;SDS011;15664;51.302;7.744;2022-07-06T07:58:54;5.97;;;2.75;;
28431;SDS011;15664;51.302;7.744;2022-07-06T08:01:25;7.47;;;2.50;;
28431;SDS011;15664;51.302;7.744;2022-07-06T08:03:50;6.90;;;2.40;;
28431;SDS011;15664;51.302;7.744;2022-07-06T08:06:15;7.13;;;2.45;;
28431;SDS011;15664;51.302;7.744;2022-07-06T08:08:41;7.32;;;2.72;;
28431;SDS011;15664;51.302;7.744;2022-07-06T08:11:06;6.70;;;2.70;;
28431;SDS011;15664;51.302;7.744;2022-07-06T08:13:32;5.63;;;2.57;;
28431;SDS011;15664;51.302;7.744;2022-07-06T08:15:58;5.63;;;2.42;;
28431;SDS011;15664;51.302;7.744;2022-07-06T08:18:24;7.63;;;2.60;;
28431;SDS011;15664;51.302;7.744;2022-07-06T08:20:49;4.47;;;2.50;;
28431;SDS011;15664;51.302;7.744;2022-07-06T08:23:14;8.85;;;2.60;;
28431;SDS011;15664;51.302;7.744;2022-07-06T08:25:39;7.30;;;2.80;;
28431;SDS011;15664;51.302;7.744;2022-07-06T08:28:05;7.77;;;2.30;;
28431;SDS011;15664;51.302;7.744;2022-07-06T08:30:30;5.90;;;2.20;;
28431;SDS011;15664;51.302;7.744;2022-07-06T08:32:59;4.53;;;1.85;;
28431;SDS011;15664;51.302;7.744;2022-07-06T08:35:25;4.23;;;1.60;;
28431;SDS011;15664;51.302;7.744;2022-07-06T08:37:50;5.20;;;1.53;;
28431;SDS011;15664;51.302;7.744;2022-07-06T08:40:16;5.40;;;1.80;;
28431;SDS011;15664;51.302;7.744;2022-07-06T08:42:41;4.57;;;1.87;;
28431;SDS011;15664;51.302;7.744;2022-07-06T08:45:07;5.25;;;1.85;;
28431;SDS011;15664;51.302;7.744;2022-07-06T08:47:35;5.13;;;1.67;;
28431;SDS011;15664;51.302;7.744;2022-07-06T08:50:02;4.23;;;1.70;;
28431;SDS011;15664;51.302;7.744;2022-07-06T08:52:28;4.53;;;1.77;;
28431;SDS011;15664;51.302;7.744;2022-07-06T08:54:55;5.55;;;1.80;;
28431;SDS011;15664;51.302;7.744;2022-07-06T08:57:20;5.50;;;2.17;;
28431;SDS011;15664;51.302;7.744;2022-07-06T08:59:46;5.68;;;1.83;;
28431;SDS011;15664;51.302;7.744;2022-07-06T09:02:11;5.50;;;1.87;;
28431;SDS011;15664;51.302;7.744;2022-07-06T09:04:38;5.97;;;1.73;;
28431;SDS011;15664;51.302;7.744;2022-07-06T09:07:07;5.07;;;2.22;;
28431;SDS011;15664;51.302;7.744;2022-07-06T09:09:32;6.27;;;2.13;;
28431;SDS011;15664;51.302;7.744;2022-07-06T09:11:58;4.20;;;2.07;;
28431;SDS011;15664;51.302;7.744;2022-07-06T09:14:25;4.63;;;2.15;;
28431;SDS011;15664;51.302;7.744;2022-07-06T09:17:04;3.60;;;1.70;;
28431;SDS011;15664;51.302;7.744;2022-07-06T09:19:31;4.15;;;1.73;;
28431;SDS011;15664;51.302;7.744;2022-07-06T09:21:58;5.57;;;2.00;;
28431;SDS011;15664;51.302;7.744;2022-07-06T09:24:24;3.80;;;1.80;;
28431;SDS011;15664;51.302;7.744;2022-07-06T09:26:51;6.13;;;2.03;;
28431;SDS011;15664;51.302;7.744;2022-07-06T09:29:24;5.03;;;1.73;;
28431;SDS011;15664;51.302;7.744;2022-07-06T09:31:56;4.75;;;1.70;;
28431;SDS011;15664;51.302;7.744;2022-07-06T09:34:24;4.35;;;1.50;;
28431;SDS011;15664;51.302;7.744;2022-07-06T09:36:50;5.30;;;1.70;;
28431;SDS011;15664;51.302;7.744;2022-07-06T09:39:16;5.00;;;1.40;;
28431;SDS011;15664;51.302;7.744;2022-07-06T09:41:55;2.78;;;1.30;;
28431;SDS011;15664;51.302;7.744;2022-07-06T09:44:25;4.30;;;1.50;;
28431;SDS011;15664;51.302;7.744;2022-07-06T09:46:52;4.85;;;1.48;;
28431;SDS011;15664;51.302;7.744;2022-07-06T09:49:20;4.43;;;1.50;;
28431;SDS011;15664;51.302;7.744;2022-07-06T09:51:53;3.08;;;1.20;;
28431;SDS011;15664;51.302;7.744;2022-07-06T09:54:20;4.28;;;1.20;;
28431;SDS011;15664;51.302;7.744;2022-07-06T09:56:46;4.63;;;1.50;;
28431;SDS011;15664;51.302;7.744;2022-07-06T09:59:15;5.50;;;1.60;;
28431;SDS011;15664;51.302;7.744;2022-07-06T10:01:42;2.28;;;1.30;;
28431;SDS011;15664;51.302;7.744;2022-07-06T10:04:08;2.65;;;1.42;;
28431;SDS011;15664;51.302;7.744;2022-07-06T10:06:37;3.53;;;1.30;;
28431;SDS011;15664;51.302;7.744;2022-07-06T10:09:07;2.97;;;1.10;;
28431;SDS011;15664;51.302;7.744;2022-07-06T10:11:38;2.88;;;1.30;;
28431;SDS011;15664;51.302;7.744;2022-07-06T10:14:05;4.30;;;1.30;;
28431;SDS011;15664;51.302;7.744;2022-07-06T10:16:31;3.00;;;1.20;;
28431;SDS011;15664;51.302;7.744;2022-07-06T10:18:58;7.18;;;1.73;;
28431;SDS011;15664;51.302;7.744;2022-07-06T10:21:26;4.22;;;1.38;;
28431;SDS011;15664;51.302;7.744;2022-07-06T10:23:52;7.23;;;1.50;;
28431;SDS011;15664;51.302;7.744;2022-07-06T10:26:18;3.13;;;1.35;;
28431;SDS011;15664;51.302;7.744;2022-07-06T10:28:46;3.80;;;1.48;;
28431;SDS011;15664;51.302;7.744;2022-07-06T10:31:13;3.00;;;1.13;;
28431;SDS011;15664;51.302;7.744;2022-07-06T10:33:40;4.05;;;1.23;;
28431;SDS011;15664;51.302;7.744;2022-07-06T10:36:07;4.82;;;1.40;;
28431;SDS011;15664;51.302;7.744;2022-07-06T10:38:34;4.03;;;1.30;;
28431;SDS011;15664;51.302;7.744;2022-07-06T10:41:03;6.68;;;1.50;;
28431;SDS011;15664;51.302;7.744;2022-07-06T10:43:37;3.38;;;1.60;;
28431;SDS011;15664;51.302;7.744;2022-07-06T10:46:07;2.78;;;1.30;;
28431;SDS011;15664;51.302;7.744;2022-07-06T10:48:41;4.60;;;1.65;;
28431;SDS011;15664;51.302;7.744;2022-07-06T10:51:10;3.03;;;1.33;;
28431;SDS011;15664;51.302;7.744;2022-07-06T10:53:38;3.97;;;2.03;;
28431;SDS011;15664;51.302;7.744;2022-07-06T10:56:06;4.47;;;1.90;;
28431;SDS011;15664;51.302;7.744;2022-07-06T10:58:37;3.95;;;2.08;;
28431;SDS011;15664;51.302;7.744;2022-07-06T11:01:03;4.22;;;1.60;;
28431;SDS011;15664;51.302;7.744;2022-07-06T11:03:34;3.40;;;1.47;;
28431;SDS011;15664;51.302;7.744;2022-07-06T11:06:11;4.68;;;1.60;;
28431;SDS011;15664;51.302;7.744;2022-07-06T11:11:15;4.80;;;1.50;;
28431;SDS011;15664;51.302;7.744;2022-07-06T11:13:48;6.13;;;1.40;;
28431;SDS011;15664;51.302;7.744;2022-07-06T11:16:16;3.37;;;1.50;;
28431;SDS011;15664;51.302;7.744;2022-07-06T11:18:46;3.67;;;1.40;;
28431;SDS011;15664;51.302;7.744;2022-07-06T11:21:20;3.55;;;1.35;;
28431;SDS011;15664;51.302;7.744;2022-07-06T11:23:49;4.68;;;1.48;;
28431;SDS011;15664;51.302;7.744;2022-07-06T11:26:16;5.90;;;1.50;;
28431;SDS011;15664;51.302;7.744;2022-07-06T11:28:44;3.50;;;1.20;;
28431;SDS011;15664;51.302;7.744;2022-07-06T11:31:11;3.13;;;1.30;;
28431;SDS011;15664;51.302;7.744;2022-07-06T11:33:37;3.70;;;1.30;;
28431;SDS011;15664;51.302;7.744;2022-07-06T11:36:12;2.58;;;1.30;;
28431;SDS011;15664;51.302;7.744;2022-07-06T11:38:39;3.33;;;1.40;;
28431;SDS011;15664;51.302;7.744;2022-07-06T11:41:04;2.73;;;1.20;;
28431;SDS011;15664;51.302;7.744;2022-07-06T11:43:30;3.35;;;1.40;;
28431;SDS011;15664;51.302;7.744;2022-07-06T11:45:55;3.93;;;1.80;;
28431;SDS011;15664;51.302;7.744;2022-07-06T11:48:20;2.77;;;1.30;;
28431;SDS011;15664;51.302;7.744;2022-07-06T11:53:24;5.00;;;1.30;;
28431;SDS011;15664;51.302;7.744;2022-07-06T11:55:49;3.97;;;1.53;;
28431;SDS011;15664;51.302;7.744;2022-07-06T11:58:15;4.23;;;1.60;;
28431;SDS011;15664;51.302;7.744;2022-07-06T12:00:45;3.88;;;1.40;;
28431;SDS011;15664;51.302;7.744;2022-07-06T12:03:28;2.87;;;1.50;;
28431;SDS011;15664;51.302;7.744;2022-07-06T12:05:53;4.07;;;1.40;;
28431;SDS011;15664;51.302;7.744;2022-07-06T12:08:18;3.67;;;1.30;;
28431;SDS011;15664;51.302;7.744;2022-07-06T12:10:44;5.73;;;1.53;;
28431;SDS011;15664;51.302;7.744;2022-07-06T12:13:09;6.07;;;1.50;;
28431;SDS011;15664;51.302;7.744;2022-07-06T12:15:35;3.60;;;1.40;;
28431;SDS011;15664;51.302;7.744;2022-07-06T12:18:00;2.30;;;1.10;;
28431;SDS011;15664;51.302;7.744;2022-07-06T12:20:26;3.65;;;1.17;;
28431;SDS011;15664;51.302;7.744;2022-07-06T12:23:00;3.67;;;1.20;;
28431;SDS011;15664;51.302;7.744;2022-07-06T12:25:33;5.50;;;1.50;;
28431;SDS011;15664;51.302;7.744;2022-07-06T12:27:59;4.93;;;1.30;;
28431;SDS011;15664;51.302;7.744;2022-07-06T12:30:24;5.40;;;1.20;;
28431;SDS011;15664;51.302;7.744;2022-07-06T12:35:44;2.78;;;1.00;;
28431;SDS011;15664;51.302;7.744;2022-07-06T12:38:09;2.50;;;1.10;;
28431;SDS011;15664;51.302;7.744;2022-07-06T12:40:35;3.63;;;1.27;;
28431;SDS011;15664;51.302;7.744;2022-07-06T12:43:02;2.75;;;1.33;;
28431;SDS011;15664;51.302;7.744;2022-07-06T12:45:28;2.92;;;1.33;;
28431;SDS011;15664;51.302;7.744;2022-07-06T12:50:46;5.90;;;1.60;;
28431;SDS011;15664;51.302;7.744;2022-07-06T12:53:24;5.28;;;1.63;;
28431;SDS011;15664;51.302;7.744;2022-07-06T12:56:10;4.13;;;1.90;;
28431;SDS011;15664;51.302;7.744;2022-07-06T12:58:36;4.55;;;2.20;;
28431;SDS011;15664;51.302;7.744;2022-07-06T13:01:02;4.73;;;1.83;;
28431;SDS011;15664;51.302;7.744;2022-07-06T13:03:27;5.87;;;1.80;;
28431;SDS011;15664;51.302;7.744;2022-07-06T13:05:52;6.00;;;1.87;;
28431;SDS011;15664;51.302;7.744;2022-07-06T13:08:18;3.73;;;1.47;;
28431;SDS011;15664;51.302;7.744;2022-07-06T13:10:43;5.85;;;1.80;;
28431;SDS011;15664;51.302;7.744;2022-07-06T13:13:10;5.63;;;1.73;;
28431;SDS011;15664;51.302;7.744;2022-07-06T13:15:35;5.70;;;1.50;;
28431;SDS011;15664;51.302;7.744;2022-07-06T13:18:00;8.13;;;1.50;;
28431;SDS011;15664;51.302;7.744;2022-07-06T13:20:26;3.00;;;1.53;;
28431;SDS011;15664;51.302;7.744;2022-07-06T13:22:51;3.87;;;1.60;;
28431;SDS011;15664;51.302;7.744;2022-07-06T13:25:16;6.90;;;1.40;;
28431;SDS011;15664;51.302;7.744;2022-07-06T13:27:42;7.67;;;1.67;;
28431;SDS011;15664;51.302;7.744;2022-07-06T13:30:07;5.20;;;2.20;;
28431;SDS011;15664;51.302;7.744;2022-07-06T13:32:33;3.67;;;1.50;;
28431;SDS011;15664;51.302;7.744;2022-07-06T13:34:58;4.87;;;1.40;;
28431;SDS011;15664;51.302;7.744;2022-07-06T13:37:23;3.23;;;1.50;;
28431;SDS011;15664;51.302;7.744;2022-07-06T13:39:49;2.83;;;1.20;;
28431;SDS011;15664;51.302;7.744;2022-07-06T13:42:14;2.90;;;1.40;;
28431;SDS011;15664;51.302;7.744;2022-07-06T13:44:39;3.43;;;1.60;;
28431;SDS011;15664;51.302;7.744;2022-07-06T13:47:05;2.83;;;1.60;;
28431;SDS011;15664;51.302;7.744;2022-07-06T13:49:30;5.90;;;1.53;;
28431;SDS011;15664;51.302;7.744;2022-07-06T13:51:55;4.57;;;1.45;;
28431;SDS011;15664;51.302;7.744;2022-07-06T13:54:27;4.60;;;1.65;;
28431;SDS011;15664;51.302;7.744;2022-07-06T13:56:52;5.05;;;1.50;;
28431;SDS011;15664;51.302;7.744;2022-07-06T13:59:18;4.53;;;1.70;;
28431;SDS011;15664;51.302;7.744;2022-07-06T14:01:43;4.00;;;1.43;;
28431;SDS011;15664;51.302;7.744;2022-07-06T14:04:08;3.57;;;1.50;;
28431;SDS011;15664;51.302;7.744;2022-07-06T14:06:34;4.50;;;1.60;;
28431;SDS011;15664;51.302;7.744;2022-07-06T14:09:00;4.13;;;1.53;;
28431;SDS011;15664;51.302;7.744;2022-07-06T14:11:25;4.53;;;2.00;;
28431;SDS011;15664;51.302;7.744;2022-07-06T14:13:50;4.07;;;2.00;;
28431;SDS011;15664;51.302;7.744;2022-07-06T14:16:16;4.90;;;1.80;;
28431;SDS011;15664;51.302;7.744;2022-07-06T14:18:41;3.03;;;1.70;;
28431;SDS011;15664;51.302;7.744;2022-07-06T14:21:08;2.97;;;1.48;;
28431;SDS011;15664;51.302;7.744;2022-07-06T14:23:34;3.47;;;1.80;;
28431;SDS011;15664;51.302;7.744;2022-07-06T14:25:59;4.30;;;2.00;;
28431;SDS011;15664;51.302;7.744;2022-07-06T14:28:24;5.27;;;1.70;;
28431;SDS011;15664;51.302;7.744;2022-07-06T14:30:50;3.57;;;1.80;;
28431;SDS011;15664;51.302;7.744;2022-07-06T14:33:15;5.23;;;1.80;;
28431;SDS011;15664;51.302;7.744;2022-07-06T14:35:45;5.53;;;2.05;;
28431;SDS011;15664;51.302;7.744;2022-07-06T14:38:12;4.78;;;1.92;;
28431;SDS011;15664;51.302;7.744;2022-07-06T14:40:38;4.03;;;2.10;;
28431;SDS011;15664;51.302;7.744;2022-07-06T14:43:04;6.88;;;2.65;;
28431;SDS011;15664;51.302;7.744;2022-07-06T14:45:29;6.37;;;2.17;;
28431;SDS011;15664;51.302;7.744;2022-07-06T14:47:55;5.03;;;2.17;;
28431;SDS011;15664;51.302;7.744;2022-07-06T14:50:21;5.83;;;1.93;;
28431;SDS011;15664;51.302;7.744;2022-07-06T14:52:53;4.22;;;2.40;;
28431;SDS011;15664;51.302;7.744;2022-07-06T14:55:19;7.47;;;2.30;;